Time;durP1;ratioP1;P1;durP2;ratioP2;P2;SDS_P1;SDS_P2;PMS_P1;PMS_P2;Temp;Humidity;BMP_temperature;BMP_pressure;BME280_temperature;BME280_humidity;BME280_pressure;Samples;Min_cycle;Max_cycle;Signal;HPM_P1;HPM_P2
2022/08/12 00:45:05;;;;;;;1.23;1.13;;;23.10;72.80;;;;;;5114182;28;20182;-60
2022/08/12 00:47:32;;;;;;;1.70;1.30;;;23.10;72.90;;;;;;5113717;28;20573;-60
2022/08/12 00:49:58;;;;;;;1.42;1.30;;;23.10;73.00;;;;;;5112380;28;20182;-59
2022/08/12 00:52:24;;;;;;;2.42;1.38;;;23.00;73.10;;;;;;5113593;28;20170;-60
2022/08/12 00:54:58;;;;;;;1.10;1.08;;;22.90;73.50;;;;;;5112270;28;20644;-60
2022/08/12 00:57:31;;;;;;;1.38;1.27;;;22.90;73.80;;;;;;5113797;28;20201;-60
2022/08/12 01:00:08;;;;;;;2.00;1.30;;;22.80;74.10;;;;;;5113370;28;20173;-60
2022/08/12 01:02:44;;;;;;;1.45;1.30;;;22.80;74.10;;;;;;5113459;28;20179;-60
2022/08/12 01:13:34;;;;;;;1.60;1.40;;;22.70;74.40;;;;;;5113498;28;20250;-59
2022/08/12 01:16:02;;;;;;;1.52;1.40;;;22.70;74.40;;;;;;5112001;28;20200;-60
2022/08/12 01:18:31;;;;;;;1.92;1.30;;;22.70;74.10;;;;;;5113273;28;20307;-60
2022/08/12 01:21:34;;;;;;;1.50;1.40;;;22.60;74.20;;;;;;5113551;28;20165;-60
2022/08/12 01:24:35;;;;;;;1.40;1.30;;;22.60;74.50;;;;;;5113067;28;20257;-60
2022/08/12 01:27:03;;;;;;;1.38;1.27;;;22.50;74.50;;;;;;5113179;28;20275;-60
2022/08/12 01:29:33;;;;;;;1.20;1.10;;;22.50;74.50;;;;;;5113160;28;20552;-60
2022/08/12 01:32:04;;;;;;;1.60;1.40;;;22.50;74.80;;;;;;5113458;28;20251;-60
2022/08/12 01:34:35;;;;;;;1.48;1.30;;;22.60;74.60;;;;;;5114064;28;20694;-60
2022/08/12 01:37:02;;;;;;;1.60;1.35;;;22.60;74.70;;;;;;5112512;28;20208;-60
2022/08/12 01:39:34;;;;;;;1.73;1.45;;;22.50;75.00;;;;;;5095904;28;20706;-60
2022/08/12 01:42:07;;;;;;;1.42;1.33;;;22.50;75.30;;;;;;5113813;28;20534;-60
2022/08/12 01:44:34;;;;;;;1.35;1.20;;;22.40;75.30;;;;;;5113689;28;20220;-60
2022/08/12 01:47:04;;;;;;;3.75;1.77;;;22.40;75.40;;;;;;5114219;28;20185;-60
2022/08/12 01:50:07;;;;;;;1.67;1.30;;;22.40;75.50;;;;;;5112556;28;20226;-60
2022/08/12 01:52:45;;;;;;;1.42;1.17;;;22.40;75.40;;;;;;5113753;28;20169;-60
2022/08/12 01:55:14;;;;;;;1.50;1.38;;;22.30;75.20;;;;;;5113668;28;20165;-60
2022/08/12 01:57:48;;;;;;;2.47;1.70;;;22.30;75.40;;;;;;5113639;28;20256;-60
2022/08/12 02:00:17;;;;;;;1.58;1.40;;;22.30;75.70;;;;;;5113775;28;20180;-60
2022/08/12 02:02:56;;;;;;;2.10;1.30;;;22.30;75.50;;;;;;5113570;28;20630;-60
2022/08/12 02:11:51;;;;;;;1.75;1.27;;;22.20;76.00;;;;;;5113962;28;20591;-60
2022/08/12 02:14:38;;;;;;;1.30;1.20;;;22.20;76.00;;;;;;5113658;28;20280;-61
2022/08/12 02:17:25;;;;;;;2.72;1.65;;;22.10;76.30;;;;;;5113598;28;20212;-60
2022/08/12 02:19:53;;;;;;;1.40;1.30;;;22.00;76.30;;;;;;5113410;28;20173;-60
2022/08/12 02:22:37;;;;;;;1.52;1.40;;;21.90;76.90;;;;;;5116544;28;20177;-60
2022/08/12 02:25:28;;;;;;;1.90;1.30;;;21.90;77.00;;;;;;5117565;28;20317;-60
2022/08/12 02:27:55;;;;;;;1.40;1.30;;;21.80;77.20;;;;;;5117775;28;20242;-60
2022/08/12 02:30:29;;;;;;;1.27;1.17;;;21.80;77.80;;;;;;5117227;28;20185;-60
2022/08/12 02:32:58;;;;;;;1.65;1.55;;;21.70;78.00;;;;;;5117436;28;20172;-60
2022/08/12 02:35:29;;;;;;;2.92;1.30;;;21.70;77.90;;;;;;5118226;28;20162;-60
2022/08/12 02:37:58;;;;;;;1.30;1.20;;;21.60;78.10;;;;;;5117232;28;20719;-60
2022/08/12 02:40:26;;;;;;;1.73;1.35;;;21.60;78.40;;;;;;5117297;28;20170;-60
2022/08/12 02:43:04;;;;;;;1.65;1.40;;;21.50;78.20;;;;;;5116989;28;20576;-60
2022/08/12 02:45:55;;;;;;;1.50;1.40;;;21.50;78.70;;;;;;5117394;28;20250;-60
2022/08/12 02:48:29;;;;;;;1.50;1.40;;;21.50;78.60;;;;;;5117234;28;20638;-60
2022/08/12 02:51:00;;;;;;;1.67;1.45;;;21.40;78.40;;;;;;5116908;28;20181;-60
2022/08/12 02:53:27;;;;;;;2.03;1.42;;;21.50;78.70;;;;;;5116759;28;20672;-60
2022/08/12 02:55:53;;;;;;;1.40;1.30;;;21.50;78.80;;;;;;5117107;28;20695;-60
2022/08/12 02:58:20;;;;;;;1.60;1.42;;;21.40;78.60;;;;;;5116911;28;20174;-60
2022/08/12 03:00:46;;;;;;;2.45;1.48;;;21.40;78.90;;;;;;5116945;28;20161;-60
2022/08/12 03:03:13;;;;;;;1.60;1.50;;;21.30;78.80;;;;;;5116774;28;20691;-60
2022/08/12 03:05:57;;;;;;;1.52;1.35;;;21.30;79.00;;;;;;5116827;28;20170;-60
2022/08/12 03:08:30;;;;;;;1.67;1.50;;;21.30;79.10;;;;;;5117120;28;20176;-60
2022/08/12 03:11:09;;;;;;;1.48;1.38;;;21.20;79.10;;;;;;5116635;28;20173;-60
2022/08/12 03:13:38;;;;;;;2.08;1.45;;;21.20;79.20;;;;;;5116383;28;20188;-60
2022/08/12 03:16:06;;;;;;;1.40;1.30;;;21.20;79.20;;;;;;5116336;28;20288;-60
2022/08/12 03:18:33;;;;;;;1.63;1.52;;;21.20;78.90;;;;;;5116373;28;20177;-59
2022/08/12 03:21:00;;;;;;;2.03;1.60;;;21.20;79.20;;;;;;5115313;28;20181;-60
2022/08/12 03:23:28;;;;;;;1.55;1.45;;;21.20;79.10;;;;;;5116458;28;20176;-60
2022/08/12 03:25:55;;;;;;;1.55;1.45;;;21.10;79.20;;;;;;5116402;28;20177;-60
2022/08/12 03:31:07;;;;;;;1.38;1.27;;;21.10;79.80;;;;;;5116598;28;20198;-60
2022/08/12 03:33:36;;;;;;;1.63;1.45;;;21.10;79.70;;;;;;5115292;28;20174;-60
2022/08/12 03:36:05;;;;;;;1.55;1.45;;;21.00;80.30;;;;;;5114968;28;20237;-60
2022/08/12 03:38:34;;;;;;;2.10;1.50;;;21.10;79.80;;;;;;5115566;28;20306;-60
2022/08/12 04:01:00;;;;;;;2.17;1.70;;;20.80;80.80;;;;;;5114848;28;20305;-59
2022/08/12 04:06:10;;;;;;;2.38;1.65;;;20.70;80.60;;;;;;5114716;28;20227;-59
2022/08/12 04:08:37;;;;;;;1.90;1.70;;;20.70;80.30;;;;;;5114220;28;20193;-60
2022/08/12 04:13:49;;;;;;;1.40;1.30;;;20.70;80.50;;;;;;5115380;28;20201;-60
2022/08/12 04:16:15;;;;;;;2.25;1.98;;;20.80;80.60;;;;;;5115173;28;20678;-61
2022/08/12 04:18:42;;;;;;;2.67;1.52;;;20.70;80.80;;;;;;5115227;28;20176;-60
2022/08/12 04:21:09;;;;;;;2.42;1.58;;;20.70;80.90;;;;;;5096830;28;20188;-59
2022/08/12 04:23:37;;;;;;;1.73;1.60;;;20.80;80.80;;;;;;5097076;28;20640;-59
2022/08/12 04:26:04;;;;;;;4.20;2.30;;;20.70;81.00;;;;;;5115131;28;20260;-60
2022/08/12 04:28:30;;;;;;;2.17;1.67;;;20.60;80.90;;;;;;5115006;28;20181;-60
2022/08/12 04:30:56;;;;;;;1.80;1.60;;;20.60;81.20;;;;;;5115016;28;20175;-59
2022/08/12 04:33:22;;;;;;;1.52;1.30;;;20.60;81.00;;;;;;5113679;28;20180;-60
2022/08/12 04:35:48;;;;;;;1.60;1.38;;;20.60;80.90;;;;;;5114771;28;20230;-60
2022/08/12 04:38:16;;;;;;;1.98;1.77;;;20.60;81.10;;;;;;5114781;28;20181;-60
2022/08/12 04:40:45;;;;;;;2.65;1.50;;;20.60;81.20;;;;;;5114885;28;20169;-60
2022/08/12 04:43:11;;;;;;;2.80;1.55;;;20.60;81.60;;;;;;5113695;28;20226;-59
2022/08/12 04:45:38;;;;;;;1.88;1.60;;;20.60;81.50;;;;;;5114468;28;20169;-60
2022/08/12 04:48:04;;;;;;;2.00;1.50;;;20.60;81.70;;;;;;5114467;28;20177;-60
2022/08/12 04:50:31;;;;;;;2.22;1.60;;;20.50;82.10;;;;;;5113488;28;20706;-60
2022/08/12 04:53:00;;;;;;;1.80;1.70;;;20.50;82.20;;;;;;5114789;28;20169;-60
2022/08/12 04:55:27;;;;;;;2.72;1.42;;;20.50;82.00;;;;;;5114544;28;20185;-60
2022/08/12 04:57:54;;;;;;;1.42;1.30;;;20.40;82.60;;;;;;5114516;28;20196;-59
2022/08/12 05:00:20;;;;;;;1.67;1.45;;;20.40;82.80;;;;;;5114352;28;20533;-51
2022/08/12 05:02:45;;;;;;;2.17;1.42;;;20.40;82.60;;;;;;5114400;28;20245;-59
2022/08/12 05:05:22;;;;;;;2.03;1.77;;;20.30;83.00;;;;;;5096025;28;20693;-59
2022/08/12 05:07:49;;;;;;;2.03;1.27;;;20.40;82.90;;;;;;5114406;28;20211;-60
2022/08/12 05:10:16;;;;;;;2.03;1.83;;;20.50;82.90;;;;;;5114183;28;20173;-59
2022/08/12 05:12:46;;;;;;;2.00;1.73;;;20.40;82.40;;;;;;5112767;28;20170;-59
2022/08/12 05:15:12;;;;;;;1.40;1.25;;;20.50;82.30;;;;;;5113454;28;20250;-59
2022/08/12 05:17:40;;;;;;;2.75;1.50;;;20.70;82.30;;;;;;5111886;28;20825;-59
2022/08/12 05:20:13;;;;;;;1.85;1.40;;;20.70;82.20;;;;;;5111301;28;20321;-59
2022/08/12 05:22:38;;;;;;;2.05;1.42;;;20.80;82.30;;;;;;5111882;28;20171;-60
2022/08/12 05:25:05;;;;;;;2.42;1.30;;;20.80;81.90;;;;;;5110887;28;20639;-60
2022/08/12 05:27:32;;;;;;;2.05;1.60;;;20.70;82.60;;;;;;5112392;28;20179;-59
2022/08/12 05:29:58;;;;;;;2.13;1.52;;;20.80;83.00;;;;;;5114157;28;20181;-59
2022/08/12 05:32:24;;;;;;;2.00;1.50;;;20.80;82.20;;;;;;5113379;28;20572;-59
2022/08/12 05:34:52;;;;;;;1.98;1.60;;;20.80;83.10;;;;;;5113977;28;20226;-59
2022/08/12 05:37:21;;;;;;;2.00;1.60;;;20.90;82.80;;;;;;5112715;28;20270;-59
2022/08/12 05:39:46;;;;;;;1.67;1.50;;;21.00;82.90;;;;;;5113761;28;20177;-60
2022/08/12 05:42:12;;;;;;;1.95;1.52;;;21.20;82.60;;;;;;5113784;28;20169;-59
2022/08/12 05:44:38;;;;;;;3.88;1.92;;;21.40;81.50;;;;;;5114111;28;20177;-60
2022/08/12 05:47:04;;;;;;;1.65;1.55;;;21.60;80.80;;;;;;5095503;28;20173;-60
2022/08/12 05:49:30;;;;;;;2.10;1.42;;;21.70;81.60;;;;;;5113842;28;20176;-60
2022/08/12 05:51:56;;;;;;;2.55;1.73;;;21.90;81.30;;;;;;5113700;28;20538;-59
2022/08/12 05:54:22;;;;;;;3.03;2.28;;;21.90;80.90;;;;;;5112683;28;20173;-59
2022/08/12 05:56:48;;;;;;;2.15;1.83;;;21.90;80.80;;;;;;5116003;28;20553;-60
2022/08/12 05:59:13;;;;;;;2.55;2.30;;;22.10;80.40;;;;;;5116977;28;20175;-60
2022/08/12 06:01:40;;;;;;;2.30;2.05;;;22.00;79.70;;;;;;5116868;28;20180;-60
2022/08/12 06:04:07;;;;;;;3.53;2.25;;;22.00;80.40;;;;;;5116782;28;20181;-60
2022/08/12 06:06:34;;;;;;;3.30;2.05;;;22.10;79.50;;;;;;5118012;28;20832;-59
2022/08/12 06:09:00;;;;;;;2.85;2.20;;;22.30;80.00;;;;;;5117735;28;20177;-60
2022/08/12 06:11:25;;;;;;;2.78;2.28;;;22.50;79.70;;;;;;5117668;28;20173;-60
2022/08/12 06:13:52;;;;;;;1.90;1.60;;;22.60;79.10;;;;;;5117824;28;20188;-60
2022/08/12 06:16:19;;;;;;;1.83;1.70;;;23.00;78.70;;;;;;5116630;28;20204;-60
2022/08/12 06:18:46;;;;;;;3.00;2.30;;;22.80;79.10;;;;;;5117297;28;20176;-60
2022/08/12 06:21:14;;;;;;;3.05;2.30;;;22.90;79.00;;;;;;5116400;28;20169;-60
2022/08/12 06:23:40;;;;;;;2.65;1.95;;;23.10;78.10;;;;;;5117321;28;20166;-60
2022/08/12 06:26:11;;;;;;;2.33;1.92;;;23.20;77.70;;;;;;5117417;28;20170;-60
2022/08/12 06:28:44;;;;;;;2.95;2.15;;;23.40;77.80;;;;;;5117551;28;20173;-60
2022/08/12 06:31:16;;;;;;;3.22;2.30;;;23.60;77.30;;;;;;5117833;28;20306;-60
2022/08/12 06:33:43;;;;;;;2.63;2.25;;;23.60;77.30;;;;;;5117339;28;20173;-60
2022/08/12 06:36:15;;;;;;;3.55;2.20;;;23.60;77.00;;;;;;5117129;28;20208;-62
2022/08/12 06:38:41;;;;;;;3.08;2.35;;;23.70;76.60;;;;;;5117412;28;20169;-60
2022/08/12 06:43:52;;;;;;;2.58;2.28;;;24.10;76.20;;;;;;5117342;28;20196;-60
2022/08/12 06:46:20;;;;;;;2.25;1.80;;;24.60;76.00;;;;;;5117030;28;20645;-60
2022/08/12 06:48:48;;;;;;;1.92;1.73;;;24.90;75.00;;;;;;5116816;28;20181;-60
2022/08/12 06:51:16;;;;;;;2.42;2.08;;;24.90;74.90;;;;;;5117110;28;20166;-60
2022/08/12 06:53:43;;;;;;;2.20;2.00;;;25.10;74.80;;;;;;5117019;28;20181;-60
2022/08/12 06:56:08;;;;;;;2.75;2.10;;;25.10;74.80;;;;;;5115644;28;20169;-60
2022/08/12 06:58:38;;;;;;;2.72;2.20;;;25.50;74.40;;;;;;5116875;28;20284;-60
2022/08/12 07:01:05;;;;;;;3.50;1.92;;;25.20;74.40;;;;;;5116633;28;20180;-60
2022/08/12 07:03:31;;;;;;;2.20;2.00;;;25.40;74.70;;;;;;5115365;28;20178;-60
2022/08/12 07:06:02;;;;;;;2.30;1.92;;;25.50;74.40;;;;;;5116877;28;20172;-60
2022/08/12 07:08:29;;;;;;;2.58;1.90;;;25.70;74.10;;;;;;5116957;28;20169;-60
2022/08/12 07:10:58;;;;;;;2.33;1.85;;;25.80;73.70;;;;;;5116887;28;20169;-59
2022/08/12 07:13:34;;;;;;;2.08;1.88;;;25.90;72.90;;;;;;5116554;28;20325;-60
2022/08/12 07:16:01;;;;;;;2.60;2.08;;;25.80;73.40;;;;;;5116325;28;20161;-60
2022/08/12 07:18:36;;;;;;;2.33;1.83;;;25.70;73.30;;;;;;5116459;28;20650;-60
2022/08/12 07:21:05;;;;;;;2.58;1.90;;;25.60;74.00;;;;;;5116509;28;20169;-60
2022/08/12 07:23:33;;;;;;;3.60;1.90;;;25.80;73.80;;;;;;5098388;28;20177;-60
2022/08/12 07:26:01;;;;;;;3.15;2.10;;;26.00;74.20;;;;;;5116370;28;20231;-60
2022/08/12 07:28:32;;;;;;;2.30;1.90;;;26.30;73.50;;;;;;5116058;28;20574;-60
2022/08/12 07:30:58;;;;;;;3.50;2.08;;;26.40;73.90;;;;;;5116373;28;20176;-60
2022/08/12 07:33:27;;;;;;;2.75;2.05;;;26.70;73.90;;;;;;5116505;28;20173;-60
2022/08/12 07:35:55;;;;;;;2.25;1.90;;;26.70;74.30;;;;;;5116124;28;20274;-60
2022/08/12 07:38:32;;;;;;;2.17;1.65;;;26.80;74.80;;;;;;5116058;28;20264;-60
2022/08/12 07:41:15;;;;;;;2.20;2.00;;;27.00;74.20;;;;;;5115906;28;20162;-60
2022/08/12 07:43:55;;;;;;;2.15;1.73;;;27.00;72.30;;;;;;5116144;28;20296;-61
2022/08/12 07:46:37;;;;;;;1.98;1.70;;;27.10;71.90;;;;;;5116059;28;20227;-60
2022/08/12 07:49:09;;;;;;;2.17;1.73;;;27.30;72.10;;;;;;5115908;28;20537;-60
2022/08/12 07:51:35;;;;;;;1.60;1.50;;;27.00;71.50;;;;;;5116009;28;20180;-60
2022/08/12 07:54:08;;;;;;;2.00;1.70;;;27.10;72.50;;;;;;5116142;28;20192;-60
2022/08/12 07:56:35;;;;;;;1.70;1.55;;;27.50;72.20;;;;;;5115754;28;20212;-60
2022/08/12 07:59:01;;;;;;;4.03;1.80;;;27.50;71.50;;;;;;5115707;28;20557;-60
2022/08/12 08:01:28;;;;;;;2.38;1.83;;;27.60;70.50;;;;;;5115474;28;20257;-60
2022/08/12 08:06:41;;;;;;;2.20;1.80;;;28.00;70.70;;;;;;5115772;28;20176;-60
2022/08/12 08:09:08;;;;;;;1.50;1.40;;;27.90;71.00;;;;;;5114373;28;20178;-60
2022/08/12 08:14:19;;;;;;;1.83;1.63;;;28.40;70.90;;;;;;5115296;28;20211;-60
2022/08/12 08:16:45;;;;;;;1.65;1.55;;;28.30;70.40;;;;;;5115387;28;20228;-60
2022/08/12 08:19:30;;;;;;;2.40;1.77;;;28.50;69.60;;;;;;5114789;28;20588;-60
2022/08/12 08:21:57;;;;;;;2.15;1.45;;;28.60;69.70;;;;;;5115181;28;20267;-60
2022/08/12 08:24:26;;;;;;;1.60;1.50;;;28.80;69.80;;;;;;5115150;28;20730;-60
2022/08/12 08:26:55;;;;;;;1.85;1.42;;;29.10;69.00;;;;;;5115061;28;20186;-60
2022/08/12 08:29:22;;;;;;;1.83;1.60;;;29.10;69.00;;;;;;5115094;28;20622;-60
2022/08/12 08:31:52;;;;;;;1.50;1.40;;;29.20;68.90;;;;;;5114975;28;20178;-60
2022/08/12 08:34:19;;;;;;;2.40;1.52;;;29.40;68.80;;;;;;5114978;28;20165;-60
2022/08/12 08:36:45;;;;;;;1.55;1.40;;;29.40;68.90;;;;;;5114748;28;20266;-60
2022/08/12 08:39:13;;;;;;;1.48;1.38;;;29.50;68.40;;;;;;5114692;28;20610;-60
2022/08/12 08:44:24;;;;;;;2.28;1.70;;;29.20;67.80;;;;;;5115153;28;20188;-60
2022/08/12 08:46:49;;;;;;;2.00;1.77;;;29.70;68.30;;;;;;5114782;28;20170;-60
2022/08/12 08:49:16;;;;;;;3.22;1.58;;;29.90;67.20;;;;;;5114678;28;20197;-61
2022/08/12 08:51:43;;;;;;;1.40;1.30;;;30.00;68.00;;;;;;5114492;28;20173;-61
2022/08/12 08:54:13;;;;;;;2.38;1.67;;;30.10;66.80;;;;;;5114748;28;20180;-60
2022/08/12 08:56:48;;;;;;;1.45;1.30;;;30.20;66.10;;;;;;5114579;28;20205;-61
2022/08/12 08:59:15;;;;;;;1.45;1.20;;;29.90;66.10;;;;;;5114713;28;20545;-60
2022/08/12 09:01:42;;;;;;;1.20;1.10;;;30.10;66.30;;;;;;5113270;28;20193;-60
2022/08/12 09:04:09;;;;;;;1.25;1.15;;;30.30;66.70;;;;;;5114208;27;20234;-60
2022/08/12 09:06:35;;;;;;;1.27;1.17;;;30.50;66.40;;;;;;5114166;28;20276;-60
2022/08/12 09:09:04;;;;;;;1.60;1.50;;;30.80;66.20;;;;;;5114516;28;20265;-60
2022/08/12 09:14:14;;;;;;;3.50;1.50;;;30.20;66.00;;;;;;5114631;28;20207;-61
2022/08/12 09:16:39;;;;;;;2.10;1.30;;;30.30;65.80;;;;;;5114031;28;20201;-60
2022/08/12 09:19:07;;;;;;;1.25;1.15;;;30.30;65.90;;;;;;5114193;28;20179;-60
2022/08/12 09:21:34;;;;;;;2.45;1.50;;;30.70;66.10;;;;;;5114242;28;20285;-61
2022/08/12 09:24:00;;;;;;;1.73;1.30;;;30.80;66.10;;;;;;5112873;28;20165;-60
2022/08/12 09:26:31;;;;;;;2.03;1.35;;;30.90;65.50;;;;;;5114024;28;20278;-60
2022/08/12 09:28:57;;;;;;;1.20;1.10;;;31.10;63.60;;;;;;5114109;28;20162;-60
2022/08/12 09:31:24;;;;;;;1.50;1.38;;;31.10;65.30;;;;;;5112991;28;20181;-61
2022/08/12 09:33:50;;;;;;;1.20;1.00;;;31.10;65.00;;;;;;5114377;28;20257;-60
2022/08/12 09:36:16;;;;;;;2.25;1.33;;;31.10;63.50;;;;;;5112653;28;20648;-60
2022/08/12 09:38:43;;;;;;;1.30;1.20;;;31.30;64.60;;;;;;5113947;28;20169;-60
2022/08/12 09:41:09;;;;;;;1.10;1.00;;;31.60;64.30;;;;;;5112573;28;20173;-60
2022/08/12 09:46:20;;;;;;;1.38;1.02;;;31.80;64.20;;;;;;5112996;28;20711;-60
2022/08/12 09:48:46;;;;;;;1.40;1.30;;;31.70;62.60;;;;;;5112597;28;20174;-60
2022/08/12 09:51:12;;;;;;;1.63;1.20;;;31.30;61.70;;;;;;5113813;28;20170;-60
2022/08/12 09:53:39;;;;;;;1.40;1.30;;;31.50;61.90;;;;;;5113718;28;20508;-60
2022/08/12 09:56:06;;;;;;;1.30;1.20;;;31.50;61.70;;;;;;5113602;28;20188;-60
2022/08/12 09:58:33;;;;;;;1.17;1.10;;;31.10;60.30;;;;;;5113587;28;20195;-60
2022/08/12 10:01:03;;;;;;;1.23;1.13;;;31.00;61.20;;;;;;5113812;28;20581;-60
2022/08/12 10:03:35;;;;;;;1.33;1.02;;;31.20;61.80;;;;;;5114030;28;20210;-60
2022/08/12 10:06:05;;;;;;;1.33;1.23;;;31.40;61.70;;;;;;5113740;28;20165;-60
2022/08/12 10:08:32;;;;;;;1.65;1.20;;;31.40;61.60;;;;;;5113663;28;20201;-59
2022/08/12 10:13:45;;;;;;;1.30;1.20;;;31.80;61.50;;;;;;5113748;28;20257;-60
2022/08/12 10:16:18;;;;;;;1.10;1.10;;;31.90;61.50;;;;;;5113500;28;20531;-60
2022/08/12 10:19:07;;;;;;;1.30;1.20;;;32.20;60.60;;;;;;5113600;28;20173;-60
2022/08/12 10:21:39;;;;;;;1.10;1.00;;;31.80;60.00;;;;;;5113399;28;20175;-60
2022/08/12 10:24:10;;;;;;;1.10;1.00;;;32.00;59.60;;;;;;5113782;28;20260;-60
2022/08/12 10:29:45;;;;;;;0.90;0.90;;;32.30;59.60;;;;;;5113724;28;20730;-60
2022/08/12 10:32:19;;;;;;;1.42;1.10;;;32.50;58.50;;;;;;5113449;28;20686;-60
2022/08/12 10:34:46;;;;;;;1.10;1.00;;;32.30;58.30;;;;;;5112082;28;20614;-60
2022/08/12 10:37:11;;;;;;;1.08;1.00;;;32.30;57.90;;;;;;5113210;28;20338;-60
2022/08/12 10:39:39;;;;;;;1.08;1.00;;;32.20;58.80;;;;;;5113276;28;20265;-60
2022/08/12 10:44:52;;;;;;;1.25;1.15;;;32.30;57.10;;;;;;5117612;28;20685;-60
2022/08/12 10:47:19;;;;;;;1.15;1.00;;;32.20;56.80;;;;;;5116203;28;20522;-60
2022/08/12 10:49:48;;;;;;;1.08;0.98;;;32.30;57.00;;;;;;5117148;28;20180;-60
2022/08/12 10:52:14;;;;;;;1.20;1.10;;;32.20;57.00;;;;;;5115595;28;20185;-60
2022/08/12 10:54:41;;;;;;;1.13;1.05;;;32.10;56.00;;;;;;5115782;28;20231;-60
2022/08/12 10:57:08;;;;;;;1.40;1.17;;;32.40;56.70;;;;;;5116762;28;20201;-60
2022/08/12 10:59:34;;;;;;;1.30;1.20;;;32.20;57.10;;;;;;5116667;28;20600;-60
2022/08/12 11:02:00;;;;;;;1.33;1.10;;;32.00;57.10;;;;;;5116850;28;20178;-60
2022/08/12 11:04:29;;;;;;;1.40;1.30;;;32.10;57.30;;;;;;5116689;28;20205;-60
2022/08/12 11:06:56;;;;;;;0.90;0.90;;;32.10;56.70;;;;;;5116751;28;20222;-60
2022/08/12 11:09:29;;;;;;;1.13;1.02;;;32.00;56.70;;;;;;5115293;28;20177;-60
2022/08/12 11:11:59;;;;;;;1.15;1.05;;;32.00;56.90;;;;;;5116825;28;20177;-59
2022/08/12 11:14:31;;;;;;;1.35;1.23;;;32.30;57.20;;;;;;5116346;28;20193;-60
2022/08/12 11:17:06;;;;;;;1.58;1.17;;;32.40;57.50;;;;;;5116448;28;20205;-60
2022/08/12 11:19:35;;;;;;;1.13;1.05;;;32.50;57.60;;;;;;5116430;28;20653;-60
2022/08/12 11:22:05;;;;;;;1.35;1.20;;;32.60;57.00;;;;;;5116278;28;20201;-60
2022/08/12 11:24:31;;;;;;;2.85;1.33;;;32.40;56.90;;;;;;5116489;28;20170;-59
2022/08/12 11:26:59;;;;;;;1.10;1.00;;;32.60;56.30;;;;;;5116431;28;20685;-60
2022/08/12 11:29:26;;;;;;;1.40;1.30;;;32.40;57.00;;;;;;5115156;28;20170;-60
2022/08/12 11:31:53;;;;;;;1.10;1.00;;;32.30;56.90;;;;;;5116099;28;20204;-60
2022/08/12 11:34:19;;;;;;;1.30;1.20;;;32.40;56.70;;;;;;5116026;28;20515;-60
2022/08/12 11:36:56;;;;;;;0.95;0.90;;;32.40;56.10;;;;;;5115074;28;20201;-59
2022/08/12 11:39:22;;;;;;;1.98;1.00;;;32.70;56.40;;;;;;5116179;28;20169;-60
2022/08/12 11:41:48;;;;;;;1.25;1.13;;;32.60;55.80;;;;;;5115944;28;20677;-60
2022/08/12 11:44:14;;;;;;;2.42;1.10;;;32.30;55.10;;;;;;5115888;28;20626;-60
2022/08/12 11:46:44;;;;;;;1.27;1.17;;;32.50;56.30;;;;;;5115816;28;20530;-60
2022/08/12 11:49:10;;;;;;;1.30;1.02;;;32.60;54.90;;;;;;5114756;28;20272;-60
2022/08/12 11:51:37;;;;;;;1.08;0.98;;;32.70;55.30;;;;;;5115952;28;20576;-60
2022/08/12 11:54:04;;;;;;;1.10;1.00;;;32.90;55.80;;;;;;5114983;28;20173;-60
2022/08/12 11:56:30;;;;;;;2.15;0.95;;;32.50;54.60;;;;;;5115723;28;20201;-60
2022/08/12 11:58:55;;;;;;;1.15;1.05;;;32.40;54.30;;;;;;5116034;28;20179;-60
2022/08/12 12:01:21;;;;;;;1.20;1.10;;;32.50;54.50;;;;;;5114456;28;20554;-60
2022/08/12 12:03:47;;;;;;;1.25;1.15;;;32.80;55.70;;;;;;5115682;28;20177;-60
2022/08/12 12:06:14;;;;;;;1.15;1.05;;;32.90;55.10;;;;;;5115596;28;20264;-60
2022/08/12 12:08:41;;;;;;;1.17;0.90;;;32.70;54.10;;;;;;5115518;28;20622;-60
2022/08/12 12:11:06;;;;;;;1.63;1.10;;;33.10;54.50;;;;;;5115336;28;20165;-60
2022/08/12 12:13:32;;;;;;;1.00;0.90;;;32.80;53.60;;;;;;5115143;28;20554;-59
2022/08/12 12:15:58;;;;;;;0.90;0.90;;;33.00;53.90;;;;;;5115209;28;20171;-60
2022/08/12 12:18:26;;;;;;;1.08;0.98;;;32.80;53.90;;;;;;5115332;28;20213;-60
2022/08/12 12:20:57;;;;;;;1.10;1.00;;;32.60;53.50;;;;;;5115338;28;20173;-60
2022/08/12 12:23:23;;;;;;;1.20;1.10;;;32.50;54.10;;;;;;5115303;28;20194;-60
2022/08/12 12:25:49;;;;;;;5.53;1.10;;;32.40;54.60;;;;;;5115142;28;20170;-60
2022/08/12 12:28:15;;;;;;;1.67;1.17;;;32.40;54.20;;;;;;5115070;28;20173;-60
2022/08/12 12:30:41;;;;;;;1.98;1.27;;;32.10;54.10;;;;;;5115377;28;20165;-60
2022/08/12 12:33:08;;;;;;;1.17;1.08;;;32.20;54.20;;;;;;5115113;28;20580;-60
2022/08/12 12:35:34;;;;;;;1.10;1.00;;;32.50;54.40;;;;;;5115005;28;20181;-60
2022/08/12 12:38:02;;;;;;;1.40;1.30;;;32.60;54.70;;;;;;5113685;28;20258;-60
2022/08/12 12:40:29;;;;;;;1.45;1.20;;;32.60;54.50;;;;;;5114752;28;20177;-60
2022/08/12 12:42:56;;;;;;;0.90;0.90;;;32.80;54.10;;;;;;5114729;28;20611;-59
2022/08/12 12:45:23;;;;;;;1.67;1.23;;;32.60;54.70;;;;;;5114661;28;20641;-60
2022/08/12 12:47:51;;;;;;;1.20;1.10;;;32.40;53.80;;;;;;5113583;28;20211;-60
2022/08/12 12:50:17;;;;;;;1.45;1.35;;;32.50;55.00;;;;;;5114771;28;20165;-59
2022/08/12 12:52:43;;;;;;;1.20;1.10;;;32.60;54.00;;;;;;5114586;28;20170;-59
2022/08/12 12:55:09;;;;;;;1.27;1.02;;;32.40;53.00;;;;;;5114563;28;20176;-60
2022/08/12 12:57:39;;;;;;;1.30;1.20;;;32.60;53.30;;;;;;5114341;28;20208;-60
2022/08/12 13:00:16;;;;;;;1.10;1.00;;;32.60;52.30;;;;;;5113423;28;20174;-60
2022/08/12 13:02:57;;;;;;;3.00;1.25;;;32.70;53.90;;;;;;5114540;28;20606;-60
2022/08/12 13:05:25;;;;;;;2.55;1.20;;;32.90;53.20;;;;;;5114402;28;20652;-59
2022/08/12 13:07:53;;;;;;;1.75;1.17;;;32.90;52.50;;;;;;5114232;28;20646;-60
2022/08/12 13:10:22;;;;;;;1.15;1.05;;;33.10;53.20;;;;;;5113235;28;20173;-60
2022/08/12 13:12:49;;;;;;;1.42;1.10;;;33.20;53.20;;;;;;5114298;28;20173;-60
2022/08/12 13:15:15;;;;;;;1.38;1.00;;;33.10;52.40;;;;;;5114333;28;20201;-60
2022/08/12 13:17:55;;;;;;;1.20;1.00;;;33.10;52.90;;;;;;5114127;28;20235;-60
2022/08/12 13:20:22;;;;;;;1.30;0.80;;;32.90;52.80;;;;;;5114139;28;20177;-60
2022/08/12 13:22:48;;;;;;;1.13;0.90;;;32.70;53.30;;;;;;5114023;28;20221;-60
2022/08/12 13:25:15;;;;;;;1.10;1.00;;;32.90;53.20;;;;;;5113893;28;20226;-60
2022/08/12 13:27:46;;;;;;;1.00;1.00;;;32.80;52.30;;;;;;5114087;28;20177;-60
2022/08/12 13:30:20;;;;;;;0.90;0.90;;;32.80;53.00;;;;;;5114016;28;20174;-60
2022/08/12 13:32:56;;;;;;;1.20;1.00;;;33.00;52.80;;;;;;5113878;28;20177;-60
2022/08/12 13:35:22;;;;;;;2.42;1.13;;;32.80;52.40;;;;;;5114153;28;20221;-60
2022/08/12 13:37:54;;;;;;;1.20;1.05;;;32.60;52.50;;;;;;5112798;28;20196;-59
2022/08/12 13:40:21;;;;;;;1.15;1.00;;;32.40;51.50;;;;;;5112704;28;20173;-60
2022/08/12 13:42:47;;;;;;;0.98;0.88;;;32.50;52.30;;;;;;5113807;28;20211;-60
2022/08/12 13:45:17;;;;;;;1.05;0.80;;;32.80;53.10;;;;;;5113714;28;20177;-60
2022/08/12 13:47:55;;;;;;;1.42;1.20;;;33.00;52.70;;;;;;5113638;28;20530;-60
2022/08/12 13:50:22;;;;;;;1.00;0.90;;;33.00;52.60;;;;;;5113885;28;20176;-59
2022/08/12 13:52:49;;;;;;;1.10;1.00;;;32.90;51.00;;;;;;5112464;28;20272;-60
2022/08/12 13:55:15;;;;;;;2.53;1.00;;;32.80;51.10;;;;;;5112416;28;20185;-60
2022/08/12 13:57:42;;;;;;;1.13;1.00;;;32.80;51.20;;;;;;5112407;28;20657;-59
2022/08/12 14:00:11;;;;;;;1.20;1.02;;;32.90;52.70;;;;;;5113473;28;20185;-59
2022/08/12 14:02:37;;;;;;;1.35;1.25;;;33.00;52.40;;;;;;5113636;28;20181;-60
2022/08/12 14:05:08;;;;;;;1.23;1.13;;;33.00;52.20;;;;;;5113776;28;20623;-59
2022/08/12 14:08:00;;;;;;;0.90;0.90;;;32.90;52.20;;;;;;5113726;28;20185;-60
2022/08/12 14:10:35;;;;;;;0.80;0.80;;;32.70;52.00;;;;;;5113458;28;20177;-60
2022/08/12 14:13:05;;;;;;;1.88;1.00;;;32.90;52.90;;;;;;5113554;28;20180;-60
2022/08/12 14:15:37;;;;;;;1.00;0.98;;;33.00;52.50;;;;;;5113492;28;20638;-59
2022/08/12 14:18:07;;;;;;;0.63;0.63;;;32.90;51.40;;;;;;5116052;28;20754;-60
2022/08/12 14:20:33;;;;;;;1.00;0.90;;;32.80;51.90;;;;;;5116323;28;20237;-59
2022/08/12 14:22:59;;;;;;;1.10;1.00;;;32.60;52.10;;;;;;5116251;28;20162;-59
2022/08/12 14:25:27;;;;;;;0.80;0.80;;;32.70;53.00;;;;;;5117673;28;20195;-60
2022/08/12 14:27:54;;;;;;;1.10;1.00;;;32.60;52.40;;;;;;5117598;28;20287;-60
2022/08/12 14:30:25;;;;;;;0.80;0.80;;;32.60;52.40;;;;;;5117442;28;20180;-59
2022/08/12 14:32:51;;;;;;;0.90;0.90;;;32.40;52.30;;;;;;5116213;28;20181;-61
2022/08/12 14:35:18;;;;;;;1.63;0.90;;;32.40;52.80;;;;;;5116069;28;20170;-59
2022/08/12 14:37:44;;;;;;;1.15;1.00;;;32.50;52.50;;;;;;5115797;28;20205;-59
2022/08/12 14:40:10;;;;;;;1.13;1.00;;;32.30;52.00;;;;;;5117169;28;20166;-59
2022/08/12 14:42:37;;;;;;;1.95;0.90;;;32.20;51.30;;;;;;5115912;28;20169;-59
2022/08/12 14:45:04;;;;;;;0.80;0.75;;;32.40;51.20;;;;;;5115914;28;20683;-60
2022/08/12 14:47:30;;;;;;;0.80;0.80;;;32.60;51.80;;;;;;5117171;28;20173;-60
2022/08/12 14:49:55;;;;;;;2.10;1.00;;;32.60;51.90;;;;;;5117001;28;20222;-59